Granite, Colorado
Current Conditions -  °F | °C
As of 7:53 PM on Saturday 25 Oct 2014 (Local Time) from KLXV Reporting Station
Clear Clear  
Wind Chill: 43°   Ceiling: Unl
Heat Index: 45°   Visibility: 10mi
Dew Point: 15°   Wind: 5mph
Humidity: 30%   Direction: 10°N
Pressure: 30.35"   Gusts: NA
Location:  39.05°N, 106.27°W
Report Text: KLXV 260153Z AUTO 01004KT 10SM CLR 07/M09 A3035 RMK AO2 SLP196 T00721094
Loading
Personal Weather Stations






























Interactive Weather Map
Tropical Storm Tracking
New forecast layout! Learn more

10-Day Weather Forecast

Advertisements
Track Severe Weather on mobile